sensor_id;sensor_type;location;lat;lon;timestamp;pressure;altitude;pressure_sealevel;temperature;humidity
64614;BME280;51025;37.772;-122.432;2023-09-30T00:01:31;100448.18;;;22.27;33.41
64614;BME280;51025;37.772;-122.432;2023-09-30T00:04:00;100454.75;;;22.53;33.12
64614;BME280;51025;37.772;-122.432;2023-09-30T00:06:29;100457.50;;;22.54;33.08
64614;BME280;51025;37.772;-122.432;2023-09-30T00:08:57;100451.11;;;22.53;33.09
64614;BME280;51025;37.772;-122.432;2023-09-30T00:11:25;100454.11;;;22.58;32.99
64614;BME280;51025;37.772;-122.432;2023-09-30T00:13:53;100451.87;;;22.61;32.88
64614;BME280;51025;37.772;-122.432;2023-09-30T00:16:21;100455.94;;;22.90;32.92
64614;BME280;51025;37.772;-122.432;2023-09-30T00:18:49;100455.76;;;22.49;32.97
64614;BME280;51025;37.772;-122.432;2023-09-30T00:21:18;100459.60;;;22.44;32.96
64614;BME280;51025;37.772;-122.432;2023-09-30T00:23:46;100457.10;;;22.57;32.76
64614;BME280;51025;37.772;-122.432;2023-09-30T00:26:14;100462.26;;;22.76;32.57
64614;BME280;51025;37.772;-122.432;2023-09-30T00:28:42;100462.60;;;22.34;32.53
64614;BME280;51025;37.772;-122.432;2023-09-30T00:31:10;100456.86;;;22.77;32.48
64614;BME280;51025;37.772;-122.432;2023-09-30T00:33:39;100452.87;;;22.45;32.22
64614;BME280;51025;37.772;-122.432;2023-09-30T00:36:08;100459.09;;;22.05;32.22
64614;BME280;51025;37.772;-122.432;2023-09-30T00:38:37;100455.98;;;21.48;32.32
64614;BME280;51025;37.772;-122.432;2023-09-30T00:41:05;100454.62;;;22.32;32.16
64614;BME280;51025;37.772;-122.432;2023-09-30T00:43:34;100452.67;;;21.95;32.17
64614;BME280;51025;37.772;-122.432;2023-09-30T00:46:06;100454.02;;;22.51;32.31
64614;BME280;51025;37.772;-122.432;2023-09-30T00:48:34;100456.40;;;21.76;32.19
64614;BME280;51025;37.772;-122.432;2023-09-30T00:51:03;100454.66;;;22.21;32.06
64614;BME280;51025;37.772;-122.432;2023-09-30T00:53:33;100454.02;;;22.07;32.13
64614;BME280;51025;37.772;-122.432;2023-09-30T00:56:01;100457.98;;;22.06;32.14
64614;BME280;51025;37.772;-122.432;2023-09-30T00:58:30;100457.22;;;22.66;32.04
64614;BME280;51025;37.772;-122.432;2023-09-30T01:00:59;100456.31;;;22.29;31.88
64614;BME280;51025;37.772;-122.432;2023-09-30T01:03:28;100455.86;;;23.02;31.99
64614;BME280;51025;37.772;-122.432;2023-09-30T01:05:57;100447.03;;;22.51;32.11
64614;BME280;51025;37.772;-122.432;2023-09-30T01:08:26;100449.32;;;22.52;32.18
64614;BME280;51025;37.772;-122.432;2023-09-30T01:10:55;100450.58;;;22.62;32.01
64614;BME280;51025;37.772;-122.432;2023-09-30T01:13:23;100442.10;;;22.88;31.84
64614;BME280;51025;37.772;-122.432;2023-09-30T01:16:03;100443.69;;;22.45;32.29
64614;BME280;51025;37.772;-122.432;2023-09-30T01:18:32;100436.83;;;22.59;32.17
64614;BME280;51025;37.772;-122.432;2023-09-30T01:21:03;100435.58;;;22.13;32.18
64614;BME280;51025;37.772;-122.432;2023-09-30T01:23:32;100438.69;;;21.95;31.94
64614;BME280;51025;37.772;-122.432;2023-09-30T01:26:02;100442.06;;;22.18;32.04
64614;BME280;51025;37.772;-122.432;2023-09-30T01:28:31;100443.17;;;22.58;32.08
64614;BME280;51025;37.772;-122.432;2023-09-30T01:31:00;100439.96;;;22.70;31.93
64614;BME280;51025;37.772;-122.432;2023-09-30T01:33:29;100437.97;;;22.68;31.92
64614;BME280;51025;37.772;-122.432;2023-09-30T01:35:57;100433.64;;;22.57;32.04
64614;BME280;51025;37.772;-122.432;2023-09-30T01:38:26;100431.45;;;21.86;31.90
64614;BME280;51025;37.772;-122.432;2023-09-30T01:40:55;100432.40;;;22.62;31.86
64614;BME280;51025;37.772;-122.432;2023-09-30T01:43:23;100425.69;;;22.65;31.78
64614;BME280;51025;37.772;-122.432;2023-09-30T01:45:51;100428.07;;;22.20;31.83
64614;BME280;51025;37.772;-122.432;2023-09-30T01:48:19;100428.14;;;22.61;31.76
64614;BME280;51025;37.772;-122.432;2023-09-30T01:50:47;100426.97;;;22.54;31.84
64614;BME280;51025;37.772;-122.432;2023-09-30T01:53:15;100423.84;;;22.01;31.90
64614;BME280;51025;37.772;-122.432;2023-09-30T01:55:43;100420.41;;;21.64;31.87
64614;BME280;51025;37.772;-122.432;2023-09-30T01:58:11;100420.10;;;22.49;31.81
64614;BME280;51025;37.772;-122.432;2023-09-30T02:00:39;100416.91;;;21.59;31.91
64614;BME280;51025;37.772;-122.432;2023-09-30T02:03:07;100419.96;;;22.04;31.78
64614;BME280;51025;37.772;-122.432;2023-09-30T02:05:35;100423.85;;;21.59;31.87
64614;BME280;51025;37.772;-122.432;2023-09-30T02:08:03;100422.23;;;22.49;31.80
64614;BME280;51025;37.772;-122.432;2023-09-30T02:10:32;100418.22;;;21.66;31.82
64614;BME280;51025;37.772;-122.432;2023-09-30T02:13:01;100422.69;;;22.32;31.92
64614;BME280;51025;37.772;-122.432;2023-09-30T02:15:30;100418.46;;;22.29;31.97
64614;BME280;51025;37.772;-122.432;2023-09-30T02:17:58;100422.93;;;22.29;31.99
64614;BME280;51025;37.772;-122.432;2023-09-30T02:20:27;100417.49;;;22.25;32.02
64614;BME280;51025;37.772;-122.432;2023-09-30T02:22:55;100413.23;;;22.37;31.93
64614;BME280;51025;37.772;-122.432;2023-09-30T02:25:23;100413.78;;;22.40;31.86
64614;BME280;51025;37.772;-122.432;2023-09-30T02:27:51;100414.16;;;22.25;32.04
64614;BME280;51025;37.772;-122.432;2023-09-30T02:30:20;100410.78;;;22.05;32.23
64614;BME280;51025;37.772;-122.432;2023-09-30T02:32:48;100410.53;;;22.25;32.04
64614;BME280;51025;37.772;-122.432;2023-09-30T02:35:16;100406.81;;;22.20;32.10
64614;BME280;51025;37.772;-122.432;2023-09-30T02:37:44;100409.68;;;22.21;32.07
64614;BME280;51025;37.772;-122.432;2023-09-30T02:40:12;100401.30;;;22.31;31.96
64614;BME280;51025;37.772;-122.432;2023-09-30T02:42:42;100401.31;;;21.58;31.88
64614;BME280;51025;37.772;-122.432;2023-09-30T02:45:11;100397.91;;;22.27;31.99
64614;BME280;51025;37.772;-122.432;2023-09-30T02:47:40;100400.62;;;22.26;31.99
64614;BME280;51025;37.772;-122.432;2023-09-30T02:50:09;100397.29;;;22.37;31.87
64614;BME280;51025;37.772;-122.432;2023-09-30T02:52:37;100400.29;;;21.71;32.11
64614;BME280;51025;37.772;-122.432;2023-09-30T02:55:06;100398.34;;;22.20;32.06
64614;BME280;51025;37.772;-122.432;2023-09-30T02:57:34;100396.46;;;21.50;31.99
64614;BME280;51025;37.772;-122.432;2023-09-30T03:00:02;100397.85;;;22.51;31.81
64614;BME280;51025;37.772;-122.432;2023-09-30T03:02:31;100396.37;;;22.85;31.44
64614;BME280;51025;37.772;-122.432;2023-09-30T03:05:00;100397.94;;;22.37;32.01
64614;BME280;51025;37.772;-122.432;2023-09-30T03:07:31;100397.32;;;22.54;32.18
64614;BME280;51025;37.772;-122.432;2023-09-30T03:09:59;100398.45;;;22.44;32.90
64614;BME280;51025;37.772;-122.432;2023-09-30T03:12:28;100402.66;;;22.49;33.15
64614;BME280;51025;37.772;-122.432;2023-09-30T03:14:56;100398.40;;;22.70;32.96
64614;BME280;51025;37.772;-122.432;2023-09-30T03:17:24;100398.74;;;22.44;33.84
64614;BME280;51025;37.772;-122.432;2023-09-30T03:19:52;100397.06;;;23.32;32.88
64614;BME280;51025;37.772;-122.432;2023-09-30T03:22:20;100396.33;;;23.23;32.91
64614;BME280;51025;37.772;-122.432;2023-09-30T03:24:48;100395.23;;;22.90;33.34
64614;BME280;51025;37.772;-122.432;2023-09-30T03:27:17;100396.83;;;22.66;33.47
64614;BME280;51025;37.772;-122.432;2023-09-30T03:29:46;100402.29;;;22.36;33.82
64614;BME280;51025;37.772;-122.432;2023-09-30T03:32:14;100403.37;;;22.18;33.59
64614;BME280;51025;37.772;-122.432;2023-09-30T03:34:43;100404.93;;;22.50;33.60
64614;BME280;51025;37.772;-122.432;2023-09-30T03:37:11;100403.74;;;22.55;33.53
64614;BME280;51025;37.772;-122.432;2023-09-30T03:39:39;100400.04;;;22.14;33.40
64614;BME280;51025;37.772;-122.432;2023-09-30T03:42:08;100400.21;;;22.26;33.58
64614;BME280;51025;37.772;-122.432;2023-09-30T03:44:36;100393.01;;;21.73;33.34
64614;BME280;51025;37.772;-122.432;2023-09-30T03:47:04;100390.07;;;22.52;33.31
64614;BME280;51025;37.772;-122.432;2023-09-30T03:49:32;100387.58;;;22.50;33.25
64614;BME280;51025;37.772;-122.432;2023-09-30T03:52:01;100382.53;;;22.60;33.05
64614;BME280;51025;37.772;-122.432;2023-09-30T03:54:31;100382.48;;;22.48;33.15
64614;BME280;51025;37.772;-122.432;2023-09-30T03:56:59;100382.98;;;22.29;33.31
64614;BME280;51025;37.772;-122.432;2023-09-30T03:59:27;100378.56;;;22.43;33.13
64614;BME280;51025;37.772;-122.432;2023-09-30T04:01:56;100376.95;;;22.42;33.11
64614;BME280;51025;37.772;-122.432;2023-09-30T04:04:24;100381.04;;;22.50;32.98
64614;BME280;51025;37.772;-122.432;2023-09-30T04:06:52;100381.92;;;22.51;32.93
64614;BME280;51025;37.772;-122.432;2023-09-30T04:09:20;100384.57;;;21.93;33.06
64614;BME280;51025;37.772;-122.432;2023-09-30T04:11:48;100385.40;;;22.33;33.08
64614;BME280;51025;37.772;-122.432;2023-09-30T04:14:16;100389.13;;;22.26;33.11
64614;BME280;51025;37.772;-122.432;2023-09-30T04:16:44;100393.13;;;22.39;32.97
64614;BME280;51025;37.772;-122.432;2023-09-30T04:19:12;100392.90;;;22.22;33.09
64614;BME280;51025;37.772;-122.432;2023-09-30T04:21:40;100390.80;;;21.90;32.66
64614;BME280;51025;37.772;-122.432;2023-09-30T04:24:09;100389.30;;;22.38;32.86
64614;BME280;51025;37.772;-122.432;2023-09-30T04:26:37;100389.52;;;21.67;32.80
64614;BME280;51025;37.772;-122.432;2023-09-30T04:29:06;100391.01;;;22.46;32.76
64614;BME280;51025;37.772;-122.432;2023-09-30T04:31:34;100391.52;;;21.54;32.89
64614;BME280;51025;37.772;-122.432;2023-09-30T04:34:02;100387.05;;;22.62;32.55
64614;BME280;51025;37.772;-122.432;2023-09-30T04:36:32;100390.10;;;22.60;32.52
64614;BME280;51025;37.772;-122.432;2023-09-30T04:39:00;100387.17;;;22.40;32.71
64614;BME280;51025;37.772;-122.432;2023-09-30T04:41:30;100385.27;;;22.34;32.78
64614;BME280;51025;37.772;-122.432;2023-09-30T04:43:58;100380.66;;;22.39;32.70
64614;BME280;51025;37.772;-122.432;2023-09-30T04:46:26;100375.88;;;22.77;32.31
64614;BME280;51025;37.772;-122.432;2023-09-30T04:48:54;100372.66;;;22.49;32.56
64614;BME280;51025;37.772;-122.432;2023-09-30T04:51:22;100368.13;;;22.67;32.40
64614;BME280;51025;37.772;-122.432;2023-09-30T04:53:50;100368.19;;;22.43;32.62
64614;BME280;51025;37.772;-122.432;2023-09-30T04:56:18;100358.85;;;23.13;32.03
64614;BME280;51025;37.772;-122.432;2023-09-30T04:58:47;100362.36;;;22.50;32.84
64614;BME280;51025;37.772;-122.432;2023-09-30T05:01:21;100363.14;;;22.47;33.12
64614;BME280;51025;37.772;-122.432;2023-09-30T05:03:50;100363.53;;;22.75;32.77
64614;BME280;51025;37.772;-122.432;2023-09-30T05:06:17;100366.70;;;22.60;32.82
64614;BME280;51025;37.772;-122.432;2023-09-30T05:08:45;100366.51;;;22.18;32.87
64614;BME280;51025;37.772;-122.432;2023-09-30T05:11:14;100364.89;;;22.42;32.99
64614;BME280;51025;37.772;-122.432;2023-09-30T05:13:42;100366.16;;;22.40;32.64
64614;BME280;51025;37.772;-122.432;2023-09-30T05:16:11;100364.24;;;22.60;32.82
64614;BME280;51025;37.772;-122.432;2023-09-30T05:18:39;100363.58;;;22.03;32.59
64614;BME280;51025;37.772;-122.432;2023-09-30T05:21:07;100364.25;;;22.03;32.91
64614;BME280;51025;37.772;-122.432;2023-09-30T05:23:36;100361.00;;;21.68;32.93
64614;BME280;51025;37.772;-122.432;2023-09-30T05:26:04;100362.35;;;22.08;32.51
64614;BME280;51025;37.772;-122.432;2023-09-30T05:28:33;100362.61;;;22.31;33.04
64614;BME280;51025;37.772;-122.432;2023-09-30T05:31:01;100363.05;;;22.41;32.89
64614;BME280;51025;37.772;-122.432;2023-09-30T05:33:30;100363.08;;;22.21;32.68
64614;BME280;51025;37.772;-122.432;2023-09-30T05:35:58;100363.45;;;22.28;33.00
64614;BME280;51025;37.772;-122.432;2023-09-30T05:38:33;100360.84;;;22.40;32.86
64614;BME280;51025;37.772;-122.432;2023-09-30T05:41:01;100364.55;;;22.20;33.07
64614;BME280;51025;37.772;-122.432;2023-09-30T05:43:29;100364.86;;;22.65;32.65
64614;BME280;51025;37.772;-122.432;2023-09-30T05:45:57;100366.12;;;22.21;33.03
64614;BME280;51025;37.772;-122.432;2023-09-30T05:48:25;100370.27;;;21.91;33.34
64614;BME280;51025;37.772;-122.432;2023-09-30T05:50:54;100374.69;;;21.50;33.28
64614;BME280;51025;37.772;-122.432;2023-09-30T05:53:22;100380.14;;;21.98;33.23
64614;BME280;51025;37.772;-122.432;2023-09-30T05:55:50;100378.96;;;22.14;33.07
64614;BME280;51025;37.772;-122.432;2023-09-30T05:58:18;100378.60;;;22.14;33.09
64614;BME280;51025;37.772;-122.432;2023-09-30T06:00:46;100377.74;;;21.50;33.28
64614;BME280;51025;37.772;-122.432;2023-09-30T06:03:14;100381.53;;;22.03;33.16
64614;BME280;51025;37.772;-122.432;2023-09-30T06:05:42;100376.32;;;22.73;32.44
64614;BME280;51025;37.772;-122.432;2023-09-30T06:08:11;100379.30;;;22.20;32.96
64614;BME280;51025;37.772;-122.432;2023-09-30T06:10:40;100379.51;;;21.39;32.99
64614;BME280;51025;37.772;-122.432;2023-09-30T06:13:08;100381.48;;;22.12;33.00
64614;BME280;51025;37.772;-122.432;2023-09-30T06:15:38;100379.84;;;21.69;33.04
64614;BME280;51025;37.772;-122.432;2023-09-30T06:18:06;100381.27;;;22.28;33.21
64614;BME280;51025;37.772;-122.432;2023-09-30T06:20:35;100376.57;;;21.09;33.23
64614;BME280;51025;37.772;-122.432;2023-09-30T06:23:04;100377.78;;;22.80;32.68
64614;BME280;51025;37.772;-122.432;2023-09-30T06:25:33;100372.84;;;22.18;32.92
64614;BME280;51025;37.772;-122.432;2023-09-30T06:28:01;100375.79;;;21.79;33.31
64614;BME280;51025;37.772;-122.432;2023-09-30T06:30:30;100375.69;;;21.93;33.15
64614;BME280;51025;37.772;-122.432;2023-09-30T06:32:59;100374.44;;;22.30;32.79
64614;BME280;51025;37.772;-122.432;2023-09-30T06:35:27;100376.80;;;21.90;33.13
64614;BME280;51025;37.772;-122.432;2023-09-30T06:37:55;100375.29;;;21.92;33.07
64614;BME280;51025;37.772;-122.432;2023-09-30T06:40:24;100378.71;;;22.12;32.91
64614;BME280;51025;37.772;-122.432;2023-09-30T06:42:52;100374.46;;;22.23;32.84
64614;BME280;51025;37.772;-122.432;2023-09-30T06:45:20;100371.19;;;22.19;33.17
64614;BME280;51025;37.772;-122.432;2023-09-30T06:47:48;100367.62;;;21.99;33.05
64614;BME280;51025;37.772;-122.432;2023-09-30T06:50:17;100369.78;;;22.47;32.98
64614;BME280;51025;37.772;-122.432;2023-09-30T06:52:45;100369.33;;;21.94;33.14
64614;BME280;51025;37.772;-122.432;2023-09-30T06:55:14;100368.43;;;22.00;33.09
64614;BME280;51025;37.772;-122.432;2023-09-30T06:57:43;100367.88;;;21.13;33.15
64614;BME280;51025;37.772;-122.432;2023-09-30T07:00:13;100367.06;;;22.36;33.05
64614;BME280;51025;37.772;-122.432;2023-09-30T07:02:42;100367.68;;;21.94;33.07
64614;BME280;51025;37.772;-122.432;2023-09-30T07:05:11;100367.80;;;21.90;33.13
64614;BME280;51025;37.772;-122.432;2023-09-30T07:07:40;100363.18;;;21.53;33.10
64614;BME280;51025;37.772;-122.432;2023-09-30T07:10:09;100362.50;;;21.83;33.22
64614;BME280;51025;37.772;-122.432;2023-09-30T07:12:37;100358.97;;;21.74;33.28
64614;BME280;51025;37.772;-122.432;2023-09-30T07:15:07;100357.62;;;22.06;32.95
64614;BME280;51025;37.772;-122.432;2023-09-30T07:17:37;100355.04;;;21.27;32.99
64614;BME280;51025;37.772;-122.432;2023-09-30T07:20:07;100346.69;;;22.12;33.16
64614;BME280;51025;37.772;-122.432;2023-09-30T07:22:35;100343.06;;;21.79;33.45
64614;BME280;51025;37.772;-122.432;2023-09-30T07:25:04;100344.02;;;22.13;33.02
64614;BME280;51025;37.772;-122.432;2023-09-30T07:27:33;100343.41;;;22.03;33.18
64614;BME280;51025;37.772;-122.432;2023-09-30T07:30:01;100342.39;;;21.74;33.48
64614;BME280;51025;37.772;-122.432;2023-09-30T07:32:30;100338.10;;;21.93;33.26
64614;BME280;51025;37.772;-122.432;2023-09-30T07:34:58;100337.02;;;21.99;33.23
64614;BME280;51025;37.772;-122.432;2023-09-30T07:37:26;100336.56;;;22.32;33.19
64614;BME280;51025;37.772;-122.432;2023-09-30T07:39:54;100338.83;;;21.83;33.37
64614;BME280;51025;37.772;-122.432;2023-09-30T07:42:22;100336.17;;;21.87;33.37
64614;BME280;51025;37.772;-122.432;2023-09-30T07:44:50;100339.97;;;21.93;33.29
64614;BME280;51025;37.772;-122.432;2023-09-30T07:47:18;100333.00;;;22.18;33.36
64614;BME280;51025;37.772;-122.432;2023-09-30T07:49:46;100331.32;;;21.52;33.26
64614;BME280;51025;37.772;-122.432;2023-09-30T07:52:14;100330.79;;;22.22;33.32
64614;BME280;51025;37.772;-122.432;2023-09-30T07:54:43;100327.49;;;21.43;33.34
64614;BME280;51025;37.772;-122.432;2023-09-30T07:57:11;100329.23;;;21.63;33.53
64614;BME280;51025;37.772;-122.432;2023-09-30T07:59:39;100330.73;;;21.63;33.49
64614;BME280;51025;37.772;-122.432;2023-09-30T08:02:08;100332.18;;;21.67;33.49
64614;BME280;51025;37.772;-122.432;2023-09-30T08:04:37;100331.23;;;20.99;33.36
64614;BME280;51025;37.772;-122.432;2023-09-30T08:07:05;100328.75;;;21.89;33.21
64614;BME280;51025;37.772;-122.432;2023-09-30T08:09:33;100328.59;;;22.05;33.41
64614;BME280;51025;37.772;-122.432;2023-09-30T08:12:02;100326.97;;;21.69;33.44
64614;BME280;51025;37.772;-122.432;2023-09-30T08:14:30;100320.99;;;21.76;33.37
64614;BME280;51025;37.772;-122.432;2023-09-30T08:16:58;100328.05;;;21.72;33.39
64614;BME280;51025;37.772;-122.432;2023-09-30T08:19:26;100333.38;;;22.02;33.41
64614;BME280;51025;37.772;-122.432;2023-09-30T08:21:53;100334.42;;;21.74;33.36
64614;BME280;51025;37.772;-122.432;2023-09-30T08:24:21;100328.37;;;22.18;33.26
64614;BME280;51025;37.772;-122.432;2023-09-30T08:26:50;100329.17;;;21.86;33.22
64614;BME280;51025;37.772;-122.432;2023-09-30T08:29:18;100333.92;;;21.44;33.64
64614;BME280;51025;37.772;-122.432;2023-09-30T08:31:46;100335.27;;;21.57;33.49
64614;BME280;51025;37.772;-122.432;2023-09-30T08:34:14;100330.80;;;21.55;33.51
64614;BME280;51025;37.772;-122.432;2023-09-30T08:36:42;100327.08;;;21.40;33.23
64614;BME280;51025;37.772;-122.432;2023-09-30T08:39:11;100329.46;;;21.54;33.48
64614;BME280;51025;37.772;-122.432;2023-09-30T08:41:39;100330.19;;;20.75;33.46
64614;BME280;51025;37.772;-122.432;2023-09-30T08:44:07;100335.79;;;21.95;33.35
64614;BME280;51025;37.772;-122.432;2023-09-30T08:46:36;100334.52;;;21.61;33.31
64614;BME280;51025;37.772;-122.432;2023-09-30T08:49:05;100336.00;;;21.65;33.22
64614;BME280;51025;37.772;-122.432;2023-09-30T08:51:34;100336.30;;;22.45;33.20
64614;BME280;51025;37.772;-122.432;2023-09-30T08:54:03;100334.79;;;21.43;33.40
64614;BME280;51025;37.772;-122.432;2023-09-30T08:56:33;100330.81;;;21.87;33.25
64614;BME280;51025;37.772;-122.432;2023-09-30T08:59:03;100333.18;;;21.53;33.20
64614;BME280;51025;37.772;-122.432;2023-09-30T09:01:32;100331.72;;;21.85;33.20
64614;BME280;51025;37.772;-122.432;2023-09-30T09:04:02;100330.64;;;21.38;33.24
64614;BME280;51025;37.772;-122.432;2023-09-30T09:06:30;100327.53;;;21.45;33.18
64614;BME280;51025;37.772;-122.432;2023-09-30T09:09:14;100326.50;;;21.67;32.91
64614;BME280;51025;37.772;-122.432;2023-09-30T09:11:42;100321.01;;;21.42;33.12
64614;BME280;51025;37.772;-122.432;2023-09-30T09:14:10;100317.74;;;21.70;33.12
64614;BME280;51025;37.772;-122.432;2023-09-30T09:16:49;100318.41;;;21.55;32.88
64614;BME280;51025;37.772;-122.432;2023-09-30T09:19:18;100316.33;;;21.32;33.14
64614;BME280;51025;37.772;-122.432;2023-09-30T09:21:55;100311.97;;;21.21;33.16
64614;BME280;51025;37.772;-122.432;2023-09-30T09:24:30;100310.21;;;21.82;32.90
64614;BME280;51025;37.772;-122.432;2023-09-30T09:27:07;100309.32;;;21.37;32.91
64614;BME280;51025;37.772;-122.432;2023-09-30T09:29:36;100305.45;;;21.29;32.94
64614;BME280;51025;37.772;-122.432;2023-09-30T09:32:10;100303.16;;;21.61;32.96
64614;BME280;51025;37.772;-122.432;2023-09-30T09:34:40;100300.17;;;21.31;32.85
64614;BME280;51025;37.772;-122.432;2023-09-30T09:37:17;100294.97;;;22.05;32.86
64614;BME280;51025;37.772;-122.432;2023-09-30T09:39:54;100292.94;;;21.33;32.80
64614;BME280;51025;37.772;-122.432;2023-09-30T09:42:28;100293.50;;;21.61;32.82
64614;BME280;51025;37.772;-122.432;2023-09-30T09:44:58;100290.54;;;21.78;32.62
64614;BME280;51025;37.772;-122.432;2023-09-30T09:47:27;100285.25;;;21.84;32.55
64614;BME280;51025;37.772;-122.432;2023-09-30T09:49:58;100288.14;;;21.59;32.72
64614;BME280;51025;37.772;-122.432;2023-09-30T09:52:26;100289.98;;;21.55;32.71
64614;BME280;51025;37.772;-122.432;2023-09-30T09:54:55;100291.75;;;21.69;32.58
64614;BME280;51025;37.772;-122.432;2023-09-30T09:57:25;100292.78;;;21.66;32.54
64614;BME280;51025;37.772;-122.432;2023-09-30T09:59:54;100289.39;;;21.36;32.46
64614;BME280;51025;37.772;-122.432;2023-09-30T10:02:23;100292.20;;;22.01;32.56
64614;BME280;51025;37.772;-122.432;2023-09-30T10:04:52;100286.16;;;21.60;32.51
64614;BME280;51025;37.772;-122.432;2023-09-30T10:07:25;100282.58;;;21.93;32.56
64614;BME280;51025;37.772;-122.432;2023-09-30T10:09:54;100282.49;;;21.29;32.39
64614;BME280;51025;37.772;-122.432;2023-09-30T10:12:24;100280.58;;;21.77;32.24
64614;BME280;51025;37.772;-122.432;2023-09-30T10:14:53;100277.80;;;22.03;32.32
64614;BME280;51025;37.772;-122.432;2023-09-30T10:17:57;100276.59;;;21.99;32.31
64614;BME280;51025;37.772;-122.432;2023-09-30T10:20:29;100274.23;;;21.47;32.35
64614;BME280;51025;37.772;-122.432;2023-09-30T10:23:20;100269.69;;;21.23;32.27
64614;BME280;51025;37.772;-122.432;2023-09-30T10:25:49;100270.43;;;21.05;32.38
64614;BME280;51025;37.772;-122.432;2023-09-30T10:28:36;100272.13;;;20.95;32.43
64614;BME280;51025;37.772;-122.432;2023-09-30T10:31:14;100271.47;;;21.28;32.40
64614;BME280;51025;37.772;-122.432;2023-09-30T10:35:53;100268.24;;;22.17;32.53
64614;BME280;51025;37.772;-122.432;2023-09-30T10:38:53;100269.25;;;21.45;32.21
64614;BME280;51025;37.772;-122.432;2023-09-30T10:41:50;100269.23;;;21.69;32.32
64614;BME280;51025;37.772;-122.432;2023-09-30T10:44:35;100267.67;;;21.61;31.96
64614;BME280;51025;37.772;-122.432;2023-09-30T10:47:36;100268.66;;;21.27;32.22
64614;BME280;51025;37.772;-122.432;2023-09-30T10:50:04;100268.05;;;21.56;32.00
64614;BME280;51025;37.772;-122.432;2023-09-30T10:53:18;100270.48;;;21.87;32.06
64614;BME280;51025;37.772;-122.432;2023-09-30T10:55:50;100265.78;;;21.32;32.16
64614;BME280;51025;37.772;-122.432;2023-09-30T10:58:22;100264.35;;;21.20;32.23
64614;BME280;51025;37.772;-122.432;2023-09-30T11:01:06;100263.24;;;21.23;32.16
64614;BME280;51025;37.772;-122.432;2023-09-30T11:03:35;100259.32;;;21.49;32.30
64614;BME280;51025;37.772;-122.432;2023-09-30T11:06:04;100255.29;;;21.59;32.23
64614;BME280;51025;37.772;-122.432;2023-09-30T11:08:33;100253.59;;;21.75;32.07
64614;BME280;51025;37.772;-122.432;2023-09-30T11:11:02;100253.58;;;21.22;32.13
64614;BME280;51025;37.772;-122.432;2023-09-30T11:13:33;100250.97;;;21.33;31.91
64614;BME280;51025;37.772;-122.432;2023-09-30T11:16:02;100258.54;;;21.10;32.19
64614;BME280;51025;37.772;-122.432;2023-09-30T11:18:32;100258.85;;;21.20;32.06
64614;BME280;51025;37.772;-122.432;2023-09-30T11:21:09;100261.21;;;21.16;32.03
64614;BME280;51025;37.772;-122.432;2023-09-30T11:23:38;100265.83;;;20.73;32.12
64614;BME280;51025;37.772;-122.432;2023-09-30T11:26:06;100265.45;;;21.54;32.07
64614;BME280;51025;37.772;-122.432;2023-09-30T11:28:39;100264.10;;;21.58;32.00
64614;BME280;51025;37.772;-122.432;2023-09-30T11:31:10;100265.85;;;21.11;31.97
64614;BME280;51025;37.772;-122.432;2023-09-30T11:33:55;100265.34;;;20.32;31.98
64614;BME280;51025;37.772;-122.432;2023-09-30T11:36:24;100264.99;;;21.50;32.02
64614;BME280;51025;37.772;-122.432;2023-09-30T11:38:52;100264.95;;;21.56;31.97
64614;BME280;51025;37.772;-122.432;2023-09-30T11:41:20;100263.25;;;21.57;31.94
64614;BME280;51025;37.772;-122.432;2023-09-30T11:44:06;100260.21;;;21.16;31.92
64614;BME280;51025;37.772;-122.432;2023-09-30T11:46:49;100260.54;;;21.18;31.88
64614;BME280;51025;37.772;-122.432;2023-09-30T11:49:30;100261.14;;;21.61;31.89
64614;BME280;51025;37.772;-122.432;2023-09-30T11:52:00;100260.73;;;21.12;31.95
64614;BME280;51025;37.772;-122.432;2023-09-30T11:54:32;100262.55;;;20.97;32.10
64614;BME280;51025;37.772;-122.432;2023-09-30T11:57:02;100262.46;;;20.79;31.91
64614;BME280;51025;37.772;-122.432;2023-09-30T11:59:30;100264.50;;;21.38;32.12
64614;BME280;51025;37.772;-122.432;2023-09-30T12:01:59;100267.56;;;21.65;31.87
64614;BME280;51025;37.772;-122.432;2023-09-30T12:04:27;100270.96;;;21.85;32.03
64614;BME280;51025;37.772;-122.432;2023-09-30T12:06:56;100268.88;;;21.22;32.31
64614;BME280;51025;37.772;-122.432;2023-09-30T12:09:24;100270.52;;;21.31;32.19
64614;BME280;51025;37.772;-122.432;2023-09-30T12:11:53;100270.91;;;20.88;32.22
64614;BME280;51025;37.772;-122.432;2023-09-30T12:14:22;100266.74;;;21.42;32.06
64614;BME280;51025;37.772;-122.432;2023-09-30T12:16:51;100263.14;;;21.07;31.97
64614;BME280;51025;37.772;-122.432;2023-09-30T12:19:20;100265.78;;;21.28;32.18
64614;BME280;51025;37.772;-122.432;2023-09-30T12:21:48;100266.91;;;20.93;32.11
64614;BME280;51025;37.772;-122.432;2023-09-30T12:24:17;100266.27;;;20.97;32.04
64614;BME280;51025;37.772;-122.432;2023-09-30T12:26:45;100265.77;;;20.89;32.10
64614;BME280;51025;37.772;-122.432;2023-09-30T12:29:13;100264.89;;;20.93;32.09
64614;BME280;51025;37.772;-122.432;2023-09-30T12:31:42;100264.25;;;20.54;32.12
64614;BME280;51025;37.772;-122.432;2023-09-30T12:34:10;100264.31;;;21.39;32.01
64614;BME280;51025;37.772;-122.432;2023-09-30T12:36:39;100265.81;;;21.02;31.93